Terminal Aerodrome Forecast
Issued by NWS Upton, NY

Current Version | Previous Version | Text Only | Print | Product List | Glossary On
Versions: 1 2 3 4 5 6 7 8 9 10 11 12 13 14 15 16 17 18 19 20 21 22 23 24 25 26 27 28 29 30
586 FTUS41 KOKX 241325 AAA TAFJFK TAF AMD KJFK 241325Z 2413/2518 VRB05KT 6SM -SHRA BR FEW020 BKN040 FM241600 VRB05KT P6SM VCSH BKN050 FM241900 18008KT P6SM VCSH FEW050 BKN080 FM250000 25006KT P6SM SCT120 FM251500 25012KT P6SM SCT250=

USA.gov is the U.S. government's official web portal to all federal, state and local government web resources and services.